sensor_id;sensor_type;location;lat;lon;timestamp;P1;durP1;ratioP1;P2;durP2;ratioP2
84478;SDS011;74701;43.248;0.066;2024-01-16T00:02:02;9.50;;;4.30;;
84478;SDS011;74701;43.248;0.066;2024-01-16T00:04:29;8.43;;;4.15;;
84478;SDS011;74701;43.248;0.066;2024-01-16T00:06:56;8.80;;;4.45;;
84478;SDS011;74701;43.248;0.066;2024-01-16T00:09:22;6.40;;;5.10;;
84478;SDS011;74701;43.248;0.066;2024-01-16T00:11:48;7.00;;;5.03;;
84478;SDS011;74701;43.248;0.066;2024-01-16T00:14:14;5.40;;;4.32;;
84478;SDS011;74701;43.248;0.066;2024-01-16T00:16:44;5.45;;;4.72;;
84478;SDS011;74701;43.248;0.066;2024-01-16T00:19:11;5.30;;;4.80;;
84478;SDS011;74701;43.248;0.066;2024-01-16T00:21:44;5.97;;;4.40;;
84478;SDS011;74701;43.248;0.066;2024-01-16T00:24:13;5.05;;;3.53;;
84478;SDS011;74701;43.248;0.066;2024-01-16T00:26:39;5.20;;;3.95;;
84478;SDS011;74701;43.248;0.066;2024-01-16T00:29:06;7.03;;;5.25;;
84478;SDS011;74701;43.248;0.066;2024-01-16T00:31:32;4.68;;;3.13;;
84478;SDS011;74701;43.248;0.066;2024-01-16T00:33:58;4.88;;;3.78;;
84478;SDS011;74701;43.248;0.066;2024-01-16T00:36:24;6.32;;;5.05;;
84478;SDS011;74701;43.248;0.066;2024-01-16T00:38:50;5.60;;;2.75;;
84478;SDS011;74701;43.248;0.066;2024-01-16T00:41:16;5.70;;;3.97;;
84478;SDS011;74701;43.248;0.066;2024-01-16T00:43:43;6.38;;;3.63;;
84478;SDS011;74701;43.248;0.066;2024-01-16T00:46:09;8.63;;;6.05;;
84478;SDS011;74701;43.248;0.066;2024-01-16T00:48:35;6.00;;;4.18;;
84478;SDS011;74701;43.248;0.066;2024-01-16T00:51:01;7.72;;;5.70;;
84478;SDS011;74701;43.248;0.066;2024-01-16T00:53:27;4.68;;;3.60;;
84478;SDS011;74701;43.248;0.066;2024-01-16T00:55:55;4.82;;;3.63;;
84478;SDS011;74701;43.248;0.066;2024-01-16T00:58:24;5.55;;;3.10;;
84478;SDS011;74701;43.248;0.066;2024-01-16T01:00:50;3.30;;;2.50;;
84478;SDS011;74701;43.248;0.066;2024-01-16T01:03:16;4.05;;;2.13;;
84478;SDS011;74701;43.248;0.066;2024-01-16T01:05:42;3.72;;;2.35;;
84478;SDS011;74701;43.248;0.066;2024-01-16T01:08:08;2.63;;;1.90;;
84478;SDS011;74701;43.248;0.066;2024-01-16T01:10:34;2.80;;;1.80;;
84478;SDS011;74701;43.248;0.066;2024-01-16T01:13:00;2.95;;;2.38;;
84478;SDS011;74701;43.248;0.066;2024-01-16T01:15:26;2.92;;;1.73;;
84478;SDS011;74701;43.248;0.066;2024-01-16T01:17:53;3.95;;;1.70;;
84478;SDS011;74701;43.248;0.066;2024-01-16T01:20:19;4.30;;;1.88;;
84478;SDS011;74701;43.248;0.066;2024-01-16T01:22:45;5.30;;;2.33;;
84478;SDS011;74701;43.248;0.066;2024-01-16T01:25:11;5.20;;;2.60;;
84478;SDS011;74701;43.248;0.066;2024-01-16T01:27:38;2.42;;;1.45;;
84478;SDS011;74701;43.248;0.066;2024-01-16T01:30:04;4.60;;;2.47;;
84478;SDS011;74701;43.248;0.066;2024-01-16T01:32:31;5.45;;;3.42;;
84478;SDS011;74701;43.248;0.066;2024-01-16T01:34:57;4.97;;;1.98;;
84478;SDS011;74701;43.248;0.066;2024-01-16T01:37:23;3.33;;;1.55;;
84478;SDS011;74701;43.248;0.066;2024-01-16T01:39:49;1.83;;;1.10;;
84478;SDS011;74701;43.248;0.066;2024-01-16T01:42:16;1.40;;;0.63;;
84478;SDS011;74701;43.248;0.066;2024-01-16T01:44:42;0.90;;;0.52;;
84478;SDS011;74701;43.248;0.066;2024-01-16T01:47:08;1.88;;;0.60;;
84478;SDS011;74701;43.248;0.066;2024-01-16T01:49:35;2.92;;;0.80;;
84478;SDS011;74701;43.248;0.066;2024-01-16T01:52:02;3.03;;;1.48;;
84478;SDS011;74701;43.248;0.066;2024-01-16T01:54:28;3.45;;;2.20;;
84478;SDS011;74701;43.248;0.066;2024-01-16T01:56:55;3.58;;;2.28;;
84478;SDS011;74701;43.248;0.066;2024-01-16T01:59:21;6.00;;;2.80;;
84478;SDS011;74701;43.248;0.066;2024-01-16T02:01:47;2.88;;;1.10;;
84478;SDS011;74701;43.248;0.066;2024-01-16T02:04:14;3.40;;;1.55;;
84478;SDS011;74701;43.248;0.066;2024-01-16T02:06:41;1.75;;;1.02;;
84478;SDS011;74701;43.248;0.066;2024-01-16T02:09:07;2.85;;;0.90;;
84478;SDS011;74701;43.248;0.066;2024-01-16T02:11:34;0.95;;;0.63;;
84478;SDS011;74701;43.248;0.066;2024-01-16T02:14:00;1.52;;;0.90;;
84478;SDS011;74701;43.248;0.066;2024-01-16T02:16:26;3.70;;;1.00;;
84478;SDS011;74701;43.248;0.066;2024-01-16T02:18:52;1.30;;;0.90;;
84478;SDS011;74701;43.248;0.066;2024-01-16T02:21:22;1.40;;;1.02;;
84478;SDS011;74701;43.248;0.066;2024-01-16T02:23:48;1.45;;;0.93;;
84478;SDS011;74701;43.248;0.066;2024-01-16T02:26:14;4.05;;;1.40;;
84478;SDS011;74701;43.248;0.066;2024-01-16T02:28:44;3.83;;;0.82;;
84478;SDS011;74701;43.248;0.066;2024-01-16T02:31:10;2.33;;;1.02;;
84478;SDS011;74701;43.248;0.066;2024-01-16T02:33:36;2.67;;;1.17;;
84478;SDS011;74701;43.248;0.066;2024-01-16T02:36:03;1.60;;;1.00;;
84478;SDS011;74701;43.248;0.066;2024-01-16T02:38:29;2.38;;;1.27;;
84478;SDS011;74701;43.248;0.066;2024-01-16T02:40:55;1.38;;;0.88;;
84478;SDS011;74701;43.248;0.066;2024-01-16T02:43:21;2.55;;;1.70;;
84478;SDS011;74701;43.248;0.066;2024-01-16T02:45:48;2.10;;;1.40;;
84478;SDS011;74701;43.248;0.066;2024-01-16T02:48:14;1.52;;;1.05;;
84478;SDS011;74701;43.248;0.066;2024-01-16T02:50:40;2.58;;;1.77;;
84478;SDS011;74701;43.248;0.066;2024-01-16T02:53:06;4.65;;;2.63;;
84478;SDS011;74701;43.248;0.066;2024-01-16T02:55:32;3.78;;;2.85;;
84478;SDS011;74701;43.248;0.066;2024-01-16T02:57:58;3.80;;;3.33;;
84478;SDS011;74701;43.248;0.066;2024-01-16T03:00:25;5.65;;;3.53;;
84478;SDS011;74701;43.248;0.066;2024-01-16T03:02:51;5.00;;;4.00;;
84478;SDS011;74701;43.248;0.066;2024-01-16T03:05:17;4.80;;;3.47;;
84478;SDS011;74701;43.248;0.066;2024-01-16T03:07:43;6.20;;;4.00;;
84478;SDS011;74701;43.248;0.066;2024-01-16T03:10:10;4.63;;;3.90;;
84478;SDS011;74701;43.248;0.066;2024-01-16T03:12:36;5.28;;;4.20;;
84478;SDS011;74701;43.248;0.066;2024-01-16T03:15:03;5.32;;;3.75;;
84478;SDS011;74701;43.248;0.066;2024-01-16T03:17:29;4.93;;;3.72;;
84478;SDS011;74701;43.248;0.066;2024-01-16T03:19:55;5.38;;;3.45;;
84478;SDS011;74701;43.248;0.066;2024-01-16T03:22:21;3.85;;;2.67;;
84478;SDS011;74701;43.248;0.066;2024-01-16T03:24:49;5.75;;;3.40;;
84478;SDS011;74701;43.248;0.066;2024-01-16T03:27:15;4.60;;;2.22;;
84478;SDS011;74701;43.248;0.066;2024-01-16T03:29:41;5.47;;;2.10;;
84478;SDS011;74701;43.248;0.066;2024-01-16T03:32:08;3.40;;;2.05;;
84478;SDS011;74701;43.248;0.066;2024-01-16T03:34:34;2.03;;;1.40;;
84478;SDS011;74701;43.248;0.066;2024-01-16T03:37:00;2.38;;;1.50;;
84478;SDS011;74701;43.248;0.066;2024-01-16T03:39:26;1.80;;;1.52;;
84478;SDS011;74701;43.248;0.066;2024-01-16T03:41:52;2.72;;;1.50;;
84478;SDS011;74701;43.248;0.066;2024-01-16T03:44:18;4.43;;;2.08;;
84478;SDS011;74701;43.248;0.066;2024-01-16T03:46:44;6.60;;;2.20;;
84478;SDS011;74701;43.248;0.066;2024-01-16T03:49:10;4.63;;;2.33;;
84478;SDS011;74701;43.248;0.066;2024-01-16T03:51:36;4.57;;;2.58;;
84478;SDS011;74701;43.248;0.066;2024-01-16T03:54:02;3.90;;;2.72;;
84478;SDS011;74701;43.248;0.066;2024-01-16T03:56:29;4.93;;;3.80;;
84478;SDS011;74701;43.248;0.066;2024-01-16T03:58:55;7.18;;;4.25;;
84478;SDS011;74701;43.248;0.066;2024-01-16T04:01:33;8.57;;;5.28;;
84478;SDS011;74701;43.248;0.066;2024-01-16T04:04:01;6.85;;;5.93;;
84478;SDS011;74701;43.248;0.066;2024-01-16T04:06:28;12.57;;;7.50;;
84478;SDS011;74701;43.248;0.066;2024-01-16T04:08:54;8.80;;;7.55;;
84478;SDS011;74701;43.248;0.066;2024-01-16T04:11:20;11.30;;;6.95;;
84478;SDS011;74701;43.248;0.066;2024-01-16T04:13:46;10.25;;;6.50;;
84478;SDS011;74701;43.248;0.066;2024-01-16T04:16:13;7.15;;;5.63;;
84478;SDS011;74701;43.248;0.066;2024-01-16T04:18:39;4.30;;;3.75;;
84478;SDS011;74701;43.248;0.066;2024-01-16T04:21:08;4.68;;;3.22;;
84478;SDS011;74701;43.248;0.066;2024-01-16T04:23:34;3.72;;;2.70;;
84478;SDS011;74701;43.248;0.066;2024-01-16T04:26:00;3.53;;;2.60;;
84478;SDS011;74701;43.248;0.066;2024-01-16T04:28:26;5.32;;;2.47;;
84478;SDS011;74701;43.248;0.066;2024-01-16T04:30:52;3.47;;;1.58;;
84478;SDS011;74701;43.248;0.066;2024-01-16T04:33:18;5.10;;;1.85;;
84478;SDS011;74701;43.248;0.066;2024-01-16T04:35:45;4.07;;;1.75;;
84478;SDS011;74701;43.248;0.066;2024-01-16T04:38:11;4.13;;;1.10;;
84478;SDS011;74701;43.248;0.066;2024-01-16T04:40:37;2.35;;;1.08;;
84478;SDS011;74701;43.248;0.066;2024-01-16T04:43:03;1.55;;;0.85;;
84478;SDS011;74701;43.248;0.066;2024-01-16T04:45:29;2.40;;;1.50;;
84478;SDS011;74701;43.248;0.066;2024-01-16T04:47:55;2.00;;;1.13;;
84478;SDS011;74701;43.248;0.066;2024-01-16T04:50:21;2.15;;;1.17;;
84478;SDS011;74701;43.248;0.066;2024-01-16T04:52:47;2.35;;;1.30;;
84478;SDS011;74701;43.248;0.066;2024-01-16T04:55:14;1.67;;;0.80;;
84478;SDS011;74701;43.248;0.066;2024-01-16T04:57:40;1.45;;;1.20;;
84478;SDS011;74701;43.248;0.066;2024-01-16T05:00:06;2.47;;;0.80;;
84478;SDS011;74701;43.248;0.066;2024-01-16T05:02:32;2.40;;;1.10;;
84478;SDS011;74701;43.248;0.066;2024-01-16T05:04:59;1.60;;;0.77;;
84478;SDS011;74701;43.248;0.066;2024-01-16T05:07:25;1.85;;;0.93;;
84478;SDS011;74701;43.248;0.066;2024-01-16T05:09:52;4.55;;;1.63;;
84478;SDS011;74701;43.248;0.066;2024-01-16T05:12:18;2.10;;;1.25;;
84478;SDS011;74701;43.248;0.066;2024-01-16T05:14:45;2.05;;;1.35;;
84478;SDS011;74701;43.248;0.066;2024-01-16T05:17:13;2.20;;;1.35;;
84478;SDS011;74701;43.248;0.066;2024-01-16T05:19:41;3.92;;;1.20;;
84478;SDS011;74701;43.248;0.066;2024-01-16T05:22:12;2.50;;;1.70;;
84478;SDS011;74701;43.248;0.066;2024-01-16T05:24:45;5.03;;;1.52;;
84478;SDS011;74701;43.248;0.066;2024-01-16T05:27:15;2.28;;;1.40;;
84478;SDS011;74701;43.248;0.066;2024-01-16T05:29:41;1.95;;;1.50;;
84478;SDS011;74701;43.248;0.066;2024-01-16T05:32:07;1.63;;;0.90;;
84478;SDS011;74701;43.248;0.066;2024-01-16T05:34:33;1.67;;;1.35;;
84478;SDS011;74701;43.248;0.066;2024-01-16T05:36:59;1.90;;;1.30;;
84478;SDS011;74701;43.248;0.066;2024-01-16T05:39:25;3.45;;;1.95;;
84478;SDS011;74701;43.248;0.066;2024-01-16T05:41:52;4.18;;;1.88;;
84478;SDS011;74701;43.248;0.066;2024-01-16T05:44:18;4.25;;;1.58;;
84478;SDS011;74701;43.248;0.066;2024-01-16T05:46:44;3.40;;;1.55;;
84478;SDS011;74701;43.248;0.066;2024-01-16T05:49:10;2.58;;;1.65;;
84478;SDS011;74701;43.248;0.066;2024-01-16T05:51:36;14.80;;;7.95;;
84478;SDS011;74701;43.248;0.066;2024-01-16T05:54:02;9.95;;;6.18;;
84478;SDS011;74701;43.248;0.066;2024-01-16T05:56:28;3.67;;;1.60;;
84478;SDS011;74701;43.248;0.066;2024-01-16T05:58:54;2.80;;;1.20;;
84478;SDS011;74701;43.248;0.066;2024-01-16T06:01:21;2.53;;;1.48;;
84478;SDS011;74701;43.248;0.066;2024-01-16T06:03:47;4.07;;;1.48;;
84478;SDS011;74701;43.248;0.066;2024-01-16T06:06:14;3.80;;;1.38;;
84478;SDS011;74701;43.248;0.066;2024-01-16T06:08:40;4.32;;;1.65;;
84478;SDS011;74701;43.248;0.066;2024-01-16T06:11:06;5.90;;;2.92;;
84478;SDS011;74701;43.248;0.066;2024-01-16T06:13:33;2.88;;;1.70;;
84478;SDS011;74701;43.248;0.066;2024-01-16T06:15:59;6.28;;;2.67;;
84478;SDS011;74701;43.248;0.066;2024-01-16T06:18:25;2.00;;;1.40;;
84478;SDS011;74701;43.248;0.066;2024-01-16T06:20:51;5.60;;;2.28;;
84478;SDS011;74701;43.248;0.066;2024-01-16T06:23:17;8.55;;;4.30;;
84478;SDS011;74701;43.248;0.066;2024-01-16T06:25:43;9.52;;;5.00;;
84478;SDS011;74701;43.248;0.066;2024-01-16T06:28:09;6.30;;;3.83;;
84478;SDS011;74701;43.248;0.066;2024-01-16T06:30:35;4.95;;;2.83;;
84478;SDS011;74701;43.248;0.066;2024-01-16T06:33:01;3.28;;;2.33;;
84478;SDS011;74701;43.248;0.066;2024-01-16T06:35:27;2.78;;;2.17;;
84478;SDS011;74701;43.248;0.066;2024-01-16T06:37:53;3.97;;;2.05;;
84478;SDS011;74701;43.248;0.066;2024-01-16T06:40:19;4.43;;;2.38;;
84478;SDS011;74701;43.248;0.066;2024-01-16T06:42:46;3.90;;;2.40;;
84478;SDS011;74701;43.248;0.066;2024-01-16T06:45:12;4.45;;;2.00;;
84478;SDS011;74701;43.248;0.066;2024-01-16T06:47:38;3.97;;;2.08;;
84478;SDS011;74701;43.248;0.066;2024-01-16T06:50:05;3.53;;;2.20;;
84478;SDS011;74701;43.248;0.066;2024-01-16T06:52:33;6.78;;;2.10;;
84478;SDS011;74701;43.248;0.066;2024-01-16T06:54:59;2.88;;;2.08;;
84478;SDS011;74701;43.248;0.066;2024-01-16T06:57:25;3.08;;;2.13;;
84478;SDS011;74701;43.248;0.066;2024-01-16T06:59:52;3.17;;;2.25;;
84478;SDS011;74701;43.248;0.066;2024-01-16T07:02:18;6.18;;;2.40;;
84478;SDS011;74701;43.248;0.066;2024-01-16T07:04:44;3.95;;;2.45;;
84478;SDS011;74701;43.248;0.066;2024-01-16T07:07:10;3.97;;;2.63;;
84478;SDS011;74701;43.248;0.066;2024-01-16T07:09:36;5.10;;;2.30;;
84478;SDS011;74701;43.248;0.066;2024-01-16T07:12:03;7.63;;;3.33;;
84478;SDS011;74701;43.248;0.066;2024-01-16T07:14:29;4.97;;;2.00;;
84478;SDS011;74701;43.248;0.066;2024-01-16T07:16:55;3.47;;;2.40;;
84478;SDS011;74701;43.248;0.066;2024-01-16T07:19:21;5.53;;;2.58;;
84478;SDS011;74701;43.248;0.066;2024-01-16T07:21:47;4.55;;;1.85;;
84478;SDS011;74701;43.248;0.066;2024-01-16T07:24:13;4.38;;;1.20;;
84478;SDS011;74701;43.248;0.066;2024-01-16T07:26:39;3.88;;;1.58;;
84478;SDS011;74701;43.248;0.066;2024-01-16T07:29:06;7.82;;;2.22;;
84478;SDS011;74701;43.248;0.066;2024-01-16T07:31:33;4.95;;;2.50;;
84478;SDS011;74701;43.248;0.066;2024-01-16T07:33:59;6.70;;;2.03;;
84478;SDS011;74701;43.248;0.066;2024-01-16T07:36:25;5.10;;;2.17;;
84478;SDS011;74701;43.248;0.066;2024-01-16T07:38:51;4.75;;;3.95;;
84478;SDS011;74701;43.248;0.066;2024-01-16T07:41:17;6.63;;;3.28;;
84478;SDS011;74701;43.248;0.066;2024-01-16T07:43:44;6.97;;;3.53;;
84478;SDS011;74701;43.248;0.066;2024-01-16T07:46:10;8.77;;;3.33;;
84478;SDS011;74701;43.248;0.066;2024-01-16T07:48:36;6.72;;;4.32;;
84478;SDS011;74701;43.248;0.066;2024-01-16T07:51:03;10.07;;;4.07;;
84478;SDS011;74701;43.248;0.066;2024-01-16T07:53:29;8.30;;;4.57;;
84478;SDS011;74701;43.248;0.066;2024-01-16T07:55:55;6.95;;;4.35;;
84478;SDS011;74701;43.248;0.066;2024-01-16T07:58:21;10.40;;;3.47;;
84478;SDS011;74701;43.248;0.066;2024-01-16T08:00:47;7.68;;;2.83;;
84478;SDS011;74701;43.248;0.066;2024-01-16T08:03:13;4.80;;;3.22;;
84478;SDS011;74701;43.248;0.066;2024-01-16T08:05:51;6.70;;;3.80;;
84478;SDS011;74701;43.248;0.066;2024-01-16T08:08:17;8.23;;;3.75;;
84478;SDS011;74701;43.248;0.066;2024-01-16T08:10:43;6.32;;;3.50;;
84478;SDS011;74701;43.248;0.066;2024-01-16T08:13:09;5.40;;;4.03;;
84478;SDS011;74701;43.248;0.066;2024-01-16T08:15:36;7.55;;;3.08;;
84478;SDS011;74701;43.248;0.066;2024-01-16T08:18:02;6.53;;;3.10;;
84478;SDS011;74701;43.248;0.066;2024-01-16T08:20:28;8.48;;;2.90;;
84478;SDS011;74701;43.248;0.066;2024-01-16T08:22:54;6.32;;;2.15;;
84478;SDS011;74701;43.248;0.066;2024-01-16T08:25:20;4.55;;;1.60;;
84478;SDS011;74701;43.248;0.066;2024-01-16T08:27:47;3.25;;;1.45;;
84478;SDS011;74701;43.248;0.066;2024-01-16T08:30:13;2.55;;;1.45;;
84478;SDS011;74701;43.248;0.066;2024-01-16T08:32:39;6.95;;;1.80;;
84478;SDS011;74701;43.248;0.066;2024-01-16T08:35:05;5.22;;;1.67;;
84478;SDS011;74701;43.248;0.066;2024-01-16T08:37:32;3.83;;;2.20;;
84478;SDS011;74701;43.248;0.066;2024-01-16T08:39:59;2.92;;;2.03;;
84478;SDS011;74701;43.248;0.066;2024-01-16T08:42:25;6.13;;;2.85;;
84478;SDS011;74701;43.248;0.066;2024-01-16T08:44:51;7.45;;;2.88;;
84478;SDS011;74701;43.248;0.066;2024-01-16T08:47:17;5.78;;;1.73;;
84478;SDS011;74701;43.248;0.066;2024-01-16T08:49:44;4.65;;;1.70;;
84478;SDS011;74701;43.248;0.066;2024-01-16T08:52:10;4.10;;;1.80;;
84478;SDS011;74701;43.248;0.066;2024-01-16T08:54:36;6.90;;;2.28;;
84478;SDS011;74701;43.248;0.066;2024-01-16T08:57:02;8.05;;;2.50;;
84478;SDS011;74701;43.248;0.066;2024-01-16T08:59:29;7.18;;;2.00;;
84478;SDS011;74701;43.248;0.066;2024-01-16T09:01:55;5.57;;;1.75;;
84478;SDS011;74701;43.248;0.066;2024-01-16T09:04:21;4.28;;;1.50;;
84478;SDS011;74701;43.248;0.066;2024-01-16T09:06:47;4.57;;;2.50;;
84478;SDS011;74701;43.248;0.066;2024-01-16T09:09:13;4.35;;;2.58;;
84478;SDS011;74701;43.248;0.066;2024-01-16T09:11:41;7.18;;;2.70;;
84478;SDS011;74701;43.248;0.066;2024-01-16T09:14:07;5.13;;;1.98;;
84478;SDS011;74701;43.248;0.066;2024-01-16T09:16:34;3.47;;;1.95;;
84478;SDS011;74701;43.248;0.066;2024-01-16T09:19:00;2.80;;;1.92;;
84478;SDS011;74701;43.248;0.066;2024-01-16T09:21:26;3.70;;;1.40;;
84478;SDS011;74701;43.248;0.066;2024-01-16T09:23:53;4.43;;;1.00;;
84478;SDS011;74701;43.248;0.066;2024-01-16T09:26:19;3.85;;;1.05;;
84478;SDS011;74701;43.248;0.066;2024-01-16T09:28:45;3.28;;;1.25;;
84478;SDS011;74701;43.248;0.066;2024-01-16T09:31:12;4.07;;;1.13;;
84478;SDS011;74701;43.248;0.066;2024-01-16T09:33:38;8.52;;;1.55;;
84478;SDS011;74701;43.248;0.066;2024-01-16T09:36:04;3.72;;;1.50;;
84478;SDS011;74701;43.248;0.066;2024-01-16T09:38:30;5.05;;;1.52;;
84478;SDS011;74701;43.248;0.066;2024-01-16T09:40:56;2.97;;;1.77;;
84478;SDS011;74701;43.248;0.066;2024-01-16T09:43:25;4.20;;;1.35;;
84478;SDS011;74701;43.248;0.066;2024-01-16T09:45:51;3.53;;;1.40;;
84478;SDS011;74701;43.248;0.066;2024-01-16T09:48:18;4.85;;;1.20;;
84478;SDS011;74701;43.248;0.066;2024-01-16T09:50:44;4.50;;;1.40;;
84478;SDS011;74701;43.248;0.066;2024-01-16T09:53:10;3.47;;;1.33;;
84478;SDS011;74701;43.248;0.066;2024-01-16T09:55:37;3.47;;;1.20;;
84478;SDS011;74701;43.248;0.066;2024-01-16T09:58:03;4.43;;;1.58;;
84478;SDS011;74701;43.248;0.066;2024-01-16T10:00:31;6.10;;;2.67;;
84478;SDS011;74701;43.248;0.066;2024-01-16T10:02:58;4.30;;;2.90;;
84478;SDS011;74701;43.248;0.066;2024-01-16T10:05:25;4.00;;;2.10;;
84478;SDS011;74701;43.248;0.066;2024-01-16T10:07:51;5.10;;;2.28;;
84478;SDS011;74701;43.248;0.066;2024-01-16T10:10:17;5.03;;;1.50;;
84478;SDS011;74701;43.248;0.066;2024-01-16T10:12:45;2.33;;;1.40;;
84478;SDS011;74701;43.248;0.066;2024-01-16T10:15:12;3.13;;;1.45;;
84478;SDS011;74701;43.248;0.066;2024-01-16T10:17:41;4.65;;;1.17;;
84478;SDS011;74701;43.248;0.066;2024-01-16T10:20:08;3.85;;;1.13;;
84478;SDS011;74701;43.248;0.066;2024-01-16T10:22:55;3.30;;;1.00;;
84478;SDS011;74701;43.248;0.066;2024-01-16T10:25:22;3.47;;;1.02;;
84478;SDS011;74701;43.248;0.066;2024-01-16T10:27:48;5.63;;;0.88;;
84478;SDS011;74701;43.248;0.066;2024-01-16T10:30:14;2.78;;;1.02;;
84478;SDS011;74701;43.248;0.066;2024-01-16T10:32:41;2.15;;;1.00;;
84478;SDS011;74701;43.248;0.066;2024-01-16T10:40:24;3.60;;;0.93;;
84478;SDS011;74701;43.248;0.066;2024-01-16T10:43:03;5.45;;;1.58;;
84478;SDS011;74701;43.248;0.066;2024-01-16T10:45:31;1.73;;;0.52;;
84478;SDS011;74701;43.248;0.066;2024-01-16T10:48:04;4.38;;;0.75;;
84478;SDS011;74701;43.248;0.066;2024-01-16T10:50:30;6.68;;;2.92;;
84478;SDS011;74701;43.248;0.066;2024-01-16T10:52:59;3.28;;;0.68;;
84478;SDS011;74701;43.248;0.066;2024-01-16T10:55:26;4.63;;;0.98;;
84478;SDS011;74701;43.248;0.066;2024-01-16T10:57:54;3.25;;;0.40;;
84478;SDS011;74701;43.248;0.066;2024-01-16T11:00:21;3.85;;;0.70;;
84478;SDS011;74701;43.248;0.066;2024-01-16T11:05:13;4.15;;;0.52;;
84478;SDS011;74701;43.248;0.066;2024-01-16T11:07:40;2.38;;;0.43;;
84478;SDS011;74701;43.248;0.066;2024-01-16T11:10:07;2.58;;;0.85;;
84478;SDS011;74701;43.248;0.066;2024-01-16T11:12:34;4.32;;;0.77;;
84478;SDS011;74701;43.248;0.066;2024-01-16T11:15:01;2.28;;;0.50;;
84478;SDS011;74701;43.248;0.066;2024-01-16T11:17:32;3.70;;;0.80;;
84478;SDS011;74701;43.248;0.066;2024-01-16T11:19:59;3.58;;;1.10;;
84478;SDS011;74701;43.248;0.066;2024-01-16T11:22:26;3.85;;;1.30;;
84478;SDS011;74701;43.248;0.066;2024-01-16T11:27:39;3.03;;;0.90;;
84478;SDS011;74701;43.248;0.066;2024-01-16T11:30:06;2.25;;;0.73;;
84478;SDS011;74701;43.248;0.066;2024-01-16T11:32:33;3.05;;;0.77;;
84478;SDS011;74701;43.248;0.066;2024-01-16T11:34:59;3.10;;;0.80;;
84478;SDS011;74701;43.248;0.066;2024-01-16T11:37:26;2.83;;;1.00;;
84478;SDS011;74701;43.248;0.066;2024-01-16T11:42:39;3.28;;;0.88;;
84478;SDS011;74701;43.248;0.066;2024-01-16T11:45:08;3.78;;;1.35;;
84478;SDS011;74701;43.248;0.066;2024-01-16T11:47:34;3.38;;;0.70;;
84478;SDS011;74701;43.248;0.066;2024-01-16T11:50:09;3.90;;;0.70;;
84478;SDS011;74701;43.248;0.066;2024-01-16T11:52:42;2.75;;;0.82;;
84478;SDS011;74701;43.248;0.066;2024-01-16T12:00:41;3.33;;;0.80;;
84478;SDS011;74701;43.248;0.066;2024-01-16T12:03:07;2.67;;;0.73;;
84478;SDS011;74701;43.248;0.066;2024-01-16T12:05:33;2.92;;;0.82;;
84478;SDS011;74701;43.248;0.066;2024-01-16T12:08:00;2.45;;;0.75;;
84478;SDS011;74701;43.248;0.066;2024-01-16T12:10:28;4.85;;;1.08;;
84478;SDS011;74701;43.248;0.066;2024-01-16T12:12:58;1.67;;;0.52;;
84478;SDS011;74701;43.248;0.066;2024-01-16T12:15:24;4.50;;;0.60;;
84478;SDS011;74701;43.248;0.066;2024-01-16T12:17:54;3.92;;;1.02;;
84478;SDS011;74701;43.248;0.066;2024-01-16T12:20:21;4.20;;;0.98;;
84478;SDS011;74701;43.248;0.066;2024-01-16T12:23:03;2.35;;;0.88;;
84478;SDS011;74701;43.248;0.066;2024-01-16T12:25:30;5.30;;;1.48;;
84478;SDS011;74701;43.248;0.066;2024-01-16T12:30:23;2.85;;;1.00;;
84478;SDS011;74701;43.248;0.066;2024-01-16T12:32:50;3.33;;;1.60;;
84478;SDS011;74701;43.248;0.066;2024-01-16T12:35:22;5.90;;;2.55;;
84478;SDS011;74701;43.248;0.066;2024-01-16T12:38:01;3.80;;;1.15;;
84478;SDS011;74701;43.248;0.066;2024-01-16T12:40:27;6.07;;;1.08;;
84478;SDS011;74701;43.248;0.066;2024-01-16T12:42:54;2.22;;;0.88;;
84478;SDS011;74701;43.248;0.066;2024-01-16T12:45:21;3.25;;;1.00;;
84478;SDS011;74701;43.248;0.066;2024-01-16T12:47:51;3.25;;;0.80;;
84478;SDS011;74701;43.248;0.066;2024-01-16T12:50:21;3.78;;;1.52;;
84478;SDS011;74701;43.248;0.066;2024-01-16T12:52:48;6.75;;;0.80;;
84478;SDS011;74701;43.248;0.066;2024-01-16T12:55:14;4.00;;;1.13;;
84478;SDS011;74701;43.248;0.066;2024-01-16T12:57:41;5.63;;;1.00;;
84478;SDS011;74701;43.248;0.066;2024-01-16T13:02:52;9.13;;;2.00;;
84478;SDS011;74701;43.248;0.066;2024-01-16T13:05:20;1.65;;;0.85;;
84478;SDS011;74701;43.248;0.066;2024-01-16T13:07:46;4.40;;;0.65;;
84478;SDS011;74701;43.248;0.066;2024-01-16T13:10:25;6.93;;;0.82;;
84478;SDS011;74701;43.248;0.066;2024-01-16T13:12:51;2.58;;;0.75;;
84478;SDS011;74701;43.248;0.066;2024-01-16T13:15:18;5.13;;;1.35;;
84478;SDS011;74701;43.248;0.066;2024-01-16T13:17:44;5.00;;;1.10;;
84478;SDS011;74701;43.248;0.066;2024-01-16T13:20:10;4.70;;;1.65;;
84478;SDS011;74701;43.248;0.066;2024-01-16T13:22:38;2.78;;;1.10;;
84478;SDS011;74701;43.248;0.066;2024-01-16T13:25:04;4.38;;;1.45;;
84478;SDS011;74701;43.248;0.066;2024-01-16T13:27:32;4.60;;;2.28;;
84478;SDS011;74701;43.248;0.066;2024-01-16T13:30:18;8.45;;;3.45;;
84478;SDS011;74701;43.248;0.066;2024-01-16T13:32:44;5.40;;;1.95;;
84478;SDS011;74701;43.248;0.066;2024-01-16T13:35:10;5.10;;;1.27;;
84478;SDS011;74701;43.248;0.066;2024-01-16T13:37:37;14.40;;;2.05;;
84478;SDS011;74701;43.248;0.066;2024-01-16T13:40:05;3.95;;;1.05;;
84478;SDS011;74701;43.248;0.066;2024-01-16T13:42:38;5.00;;;1.27;;
84478;SDS011;74701;43.248;0.066;2024-01-16T13:45:04;4.40;;;1.00;;
84478;SDS011;74701;43.248;0.066;2024-01-16T13:47:30;7.95;;;1.67;;
84478;SDS011;74701;43.248;0.066;2024-01-16T13:49:56;5.00;;;1.35;;
84478;SDS011;74701;43.248;0.066;2024-01-16T13:52:22;3.28;;;1.15;;
84478;SDS011;74701;43.248;0.066;2024-01-16T13:54:48;5.78;;;1.08;;
84478;SDS011;74701;43.248;0.066;2024-01-16T13:57:14;4.60;;;1.52;;
84478;SDS011;74701;43.248;0.066;2024-01-16T13:59:41;6.30;;;1.30;;
84478;SDS011;74701;43.248;0.066;2024-01-16T14:02:07;3.38;;;1.10;;
84478;SDS011;74701;43.248;0.066;2024-01-16T14:04:34;4.93;;;1.27;;
84478;SDS011;74701;43.248;0.066;2024-01-16T14:07:00;5.07;;;1.15;;
84478;SDS011;74701;43.248;0.066;2024-01-16T14:09:26;4.78;;;2.00;;
84478;SDS011;74701;43.248;0.066;2024-01-16T14:11:52;2.88;;;1.40;;
84478;SDS011;74701;43.248;0.066;2024-01-16T14:14:18;2.95;;;1.10;;
84478;SDS011;74701;43.248;0.066;2024-01-16T14:16:44;3.25;;;1.00;;
84478;SDS011;74701;43.248;0.066;2024-01-16T14:19:14;8.40;;;3.88;;
84478;SDS011;74701;43.248;0.066;2024-01-16T14:21:40;3.30;;;1.45;;
84478;SDS011;74701;43.248;0.066;2024-01-16T14:24:06;5.80;;;1.40;;
84478;SDS011;74701;43.248;0.066;2024-01-16T14:26:32;3.05;;;1.05;;
84478;SDS011;74701;43.248;0.066;2024-01-16T14:28:59;1.65;;;1.00;;
84478;SDS011;74701;43.248;0.066;2024-01-16T14:31:25;6.30;;;1.25;;
84478;SDS011;74701;43.248;0.066;2024-01-16T14:33:51;3.25;;;0.98;;
84478;SDS011;74701;43.248;0.066;2024-01-16T14:36:18;3.65;;;1.00;;
84478;SDS011;74701;43.248;0.066;2024-01-16T14:38:44;5.53;;;1.20;;
84478;SDS011;74701;43.248;0.066;2024-01-16T14:41:11;5.13;;;1.25;;
84478;SDS011;74701;43.248;0.066;2024-01-16T14:43:37;1.98;;;1.08;;
84478;SDS011;74701;43.248;0.066;2024-01-16T14:46:03;5.20;;;1.40;;
84478;SDS011;74701;43.248;0.066;2024-01-16T14:48:29;7.28;;;1.48;;
84478;SDS011;74701;43.248;0.066;2024-01-16T14:50:55;6.63;;;1.42;;
84478;SDS011;74701;43.248;0.066;2024-01-16T14:53:22;6.28;;;1.73;;
84478;SDS011;74701;43.248;0.066;2024-01-16T14:55:48;8.38;;;2.72;;
84478;SDS011;74701;43.248;0.066;2024-01-16T14:58:14;3.45;;;1.40;;
84478;SDS011;74701;43.248;0.066;2024-01-16T15:00:43;6.50;;;2.50;;
84478;SDS011;74701;43.248;0.066;2024-01-16T15:03:11;7.55;;;2.88;;
84478;SDS011;74701;43.248;0.066;2024-01-16T15:05:38;13.05;;;7.30;;
84478;SDS011;74701;43.248;0.066;2024-01-16T15:08:04;8.45;;;3.55;;
84478;SDS011;74701;43.248;0.066;2024-01-16T15:10:31;5.55;;;2.15;;